createdAt,value
2019-03-22T00:00:26.273Z,102644.31
2019-03-22T00:03:00.278Z,102643.38
2019-03-22T00:05:32.287Z,102644.65
2019-03-22T00:08:04.572Z,102647.70
2019-03-22T00:10:36.846Z,102645.52
2019-03-22T00:13:08.964Z,102643.27
2019-03-22T00:15:41.356Z,102650.23
2019-03-22T00:18:13.483Z,102641.48
2019-03-22T00:20:45.621Z,102647.56
2019-03-22T00:23:17.477Z,102638.61
2019-03-22T00:25:49.639Z,102646.49
2019-03-22T00:28:21.906Z,102641.31
2019-03-22T00:30:54.543Z,102649.70
2019-03-22T00:33:26.660Z,102653.65
2019-03-22T00:35:58.751Z,102654.06
2019-03-22T00:38:31.104Z,102656.28
2019-03-22T00:41:03.139Z,102651.94
2019-03-22T00:43:35.157Z,102652.66
2019-03-22T00:46:08.729Z,102658.34
2019-03-22T00:48:40.977Z,102664.19
2019-03-22T00:51:13.210Z,102661.13
2019-03-22T00:53:45.441Z,102665.41
2019-03-22T00:56:17.921Z,102670.23
2019-03-22T00:58:50.360Z,102671.19
2019-03-22T01:01:23.121Z,102664.61
2019-03-22T01:03:55.652Z,102664.55
2019-03-22T01:06:28.561Z,102657.95
2019-03-22T01:09:01.132Z,102656.19
2019-03-22T01:11:34.717Z,102657.13
2019-03-22T01:14:07.185Z,102652.63
2019-03-22T01:16:40.451Z,102659.81
2019-03-22T01:19:12.602Z,102658.02
2019-03-22T01:21:45.203Z,102652.63
2019-03-22T01:24:17.452Z,102661.80
2019-03-22T01:26:49.715Z,102661.34
2019-03-22T01:29:22.273Z,102665.84
2019-03-22T01:31:54.162Z,102658.32
2019-03-22T01:34:26.087Z,102664.97
2019-03-22T01:36:58.183Z,102656.02
2019-03-22T01:39:30.309Z,102658.71
2019-03-22T01:42:02.634Z,102663.42
2019-03-22T01:44:34.848Z,102665.33
2019-03-22T01:47:06.837Z,102660.91
2019-03-22T01:49:39.167Z,102664.79
2019-03-22T01:52:11.273Z,102654.77
2019-03-22T01:54:44.169Z,102652.57
2019-03-22T01:57:16.352Z,102651.59
2019-03-22T01:59:48.603Z,102659.52
2019-03-22T02:02:20.477Z,102648.20
2019-03-22T02:04:52.618Z,102655.18
2019-03-22T02:07:24.824Z,102650.81
2019-03-22T02:09:56.942Z,102649.94
2019-03-22T02:12:29.015Z,102652.12
2019-03-22T02:15:01.045Z,102646.41
2019-03-22T02:17:33.126Z,102647.73
2019-03-22T02:20:06.486Z,102647.30
2019-03-22T02:22:38.340Z,102649.05
2019-03-22T02:25:10.573Z,102642.88
2019-03-22T02:27:43.189Z,102649.38
2019-03-22T02:30:16.632Z,102651.20
2019-03-22T02:32:48.690Z,102658.55
2019-03-22T02:35:29.226Z,102669.50
2019-03-22T02:37:54.333Z,102656.35
2019-03-22T02:40:26.325Z,102665.25
2019-03-22T02:42:58.448Z,102658.56
2019-03-22T02:45:30.423Z,102667.59
2019-03-22T02:48:02.631Z,102672.52
2019-03-22T02:50:34.650Z,102677.58
2019-03-22T02:53:06.813Z,102687.88
2019-03-22T02:55:38.838Z,102686.56
2019-03-22T02:58:20.295Z,102683.57
2019-03-22T03:00:44.453Z,102690.16
2019-03-22T03:03:16.468Z,102695.78
2019-03-22T03:05:48.455Z,102696.95
2019-03-22T03:08:20.349Z,102710.56
2019-03-22T03:10:52.394Z,102710.41
2019-03-22T03:13:24.565Z,102722.91
2019-03-22T03:15:56.686Z,102722.69
2019-03-22T03:18:28.749Z,102724.39
2019-03-22T03:21:01.909Z,102724.84
2019-03-22T03:23:34.004Z,102721.37
2019-03-22T03:26:06.358Z,102734.89
2019-03-22T03:28:38.436Z,102739.33
2019-03-22T03:31:10.605Z,102743.12
2019-03-22T03:33:42.742Z,102746.33
2019-03-22T03:36:15.032Z,102753.10
2019-03-22T03:38:47.528Z,102749.77
2019-03-22T03:41:19.551Z,102759.08
2019-03-22T03:43:51.956Z,102760.14
2019-03-22T03:46:24.139Z,102758.02
2019-03-22T03:48:56.358Z,102761.39
2019-03-22T03:51:28.594Z,102758.63
2019-03-22T03:54:01.605Z,102773.49
2019-03-22T03:56:34.898Z,102770.73
2019-03-22T03:59:06.825Z,102753.26
2019-03-22T04:01:39.257Z,102748.06
2019-03-22T04:04:11.177Z,102748.13
2019-03-22T04:06:43.108Z,102748.89
2019-03-22T04:09:15.227Z,102756.08
2019-03-22T04:11:47.323Z,102752.64
2019-03-22T04:14:19.425Z,102764.88
2019-03-22T04:16:51.579Z,102770.66
2019-03-22T04:19:23.518Z,102771.36
2019-03-22T04:21:57.315Z,102778.01
2019-03-22T04:24:29.361Z,102776.00
2019-03-22T04:27:01.363Z,102769.94
2019-03-22T04:29:34.387Z,102765.89
2019-03-22T04:32:06.322Z,102773.44
2019-03-22T04:34:38.339Z,102776.70
2019-03-22T04:37:12.149Z,102780.67
2019-03-22T04:39:43.988Z,102793.36
2019-03-22T04:42:16.216Z,102789.61
2019-03-22T04:44:48.399Z,102798.08
2019-03-22T04:47:21.721Z,102805.69
2019-03-22T04:49:55.394Z,102808.84
2019-03-22T04:52:28.427Z,102804.92
2019-03-22T04:55:01.779Z,102808.28
2019-03-22T04:57:35.814Z,102815.83
2019-03-22T05:00:08.943Z,102816.59
2019-03-22T05:02:42.556Z,102825.49
2019-03-22T05:05:15.482Z,102828.68
2019-03-22T05:07:48.194Z,102828.78
2019-03-22T05:10:21.387Z,102828.78
2019-03-22T05:12:55.965Z,102843.84
2019-03-22T05:15:29.556Z,102840.93
2019-03-22T05:18:03.177Z,102831.03
2019-03-22T05:20:36.574Z,102835.95
2019-03-22T05:23:09.504Z,102833.70
2019-03-22T05:25:43.213Z,102833.50
2019-03-22T05:28:15.770Z,102831.83
2019-03-22T05:31:32.851Z,102843.92
2019-03-22T05:34:04.841Z,102855.01
2019-03-22T05:36:36.774Z,102863.08
2019-03-22T05:39:10.444Z,102863.57
2019-03-22T05:41:42.597Z,102859.34
2019-03-22T05:44:14.511Z,102852.31
2019-03-22T05:46:48.898Z,102851.58
2019-03-22T05:49:20.238Z,102861.84
2019-03-22T05:51:52.544Z,102861.32
2019-03-22T05:54:24.661Z,102859.23
2019-03-22T05:56:57.137Z,102864.92
2019-03-22T05:59:29.182Z,102876.98
2019-03-22T06:02:02.017Z,102879.16
2019-03-22T06:04:33.867Z,102879.30
2019-03-22T06:07:05.790Z,102885.02
2019-03-22T06:09:37.708Z,102886.30
2019-03-22T06:12:09.531Z,102885.58
2019-03-22T06:14:41.405Z,102882.14
2019-03-22T06:17:13.365Z,102889.35
2019-03-22T06:19:45.542Z,102891.36
2019-03-22T06:22:17.646Z,102897.53
2019-03-22T06:24:49.630Z,102897.53
2019-03-22T06:27:21.761Z,102897.74
2019-03-22T06:29:55.493Z,102909.21
2019-03-22T06:32:27.524Z,102910.05
2019-03-22T06:34:59.655Z,102905.33
2019-03-22T06:37:31.908Z,102902.70
2019-03-22T06:40:04.386Z,102904.22
2019-03-22T06:42:36.428Z,102906.47
2019-03-22T06:45:09.142Z,102897.95
2019-03-22T06:47:41.417Z,102904.95
2019-03-22T06:50:15.100Z,102906.38
2019-03-22T06:52:47.316Z,102902.69
2019-03-22T06:55:20.533Z,102899.41
2019-03-22T06:57:52.490Z,102901.30
2019-03-22T07:00:24.661Z,102904.87
2019-03-22T07:02:56.698Z,102920.86
2019-03-22T07:05:28.737Z,102918.02
2019-03-22T07:08:00.995Z,102919.92
2019-03-22T07:10:32.878Z,102924.28
2019-03-22T07:13:05.177Z,102926.88
2019-03-22T07:15:37.334Z,102935.44
2019-03-22T07:18:09.267Z,102937.14
2019-03-22T07:20:41.197Z,102936.30
2019-03-22T07:23:13.434Z,102950.37
2019-03-22T07:25:45.613Z,102945.77
2019-03-22T07:28:17.700Z,102933.08
2019-03-22T07:30:49.944Z,102945.37
2019-03-22T07:33:21.958Z,102948.20
2019-03-22T07:35:53.981Z,102942.08
2019-03-22T07:38:25.949Z,102952.28
2019-03-22T07:40:58.006Z,102945.42
2019-03-22T07:43:30.225Z,102941.08
2019-03-22T07:46:02.340Z,102943.76
2019-03-22T07:48:34.526Z,102945.50
2019-03-22T07:51:07.105Z,102950.59
2019-03-22T07:53:39.312Z,102946.95
2019-03-22T07:56:11.331Z,102949.72
2019-03-22T07:58:43.521Z,102936.47
2019-03-22T08:01:15.402Z,102939.40
2019-03-22T08:03:47.611Z,102947.33
2019-03-22T08:06:19.952Z,102940.53
2019-03-22T08:08:51.992Z,102936.26
2019-03-22T08:11:24.957Z,102931.53
2019-03-22T08:13:57.027Z,102935.55
2019-03-22T08:16:29.463Z,102935.43
2019-03-22T08:19:01.605Z,102935.23
2019-03-22T08:21:33.954Z,102934.15
2019-03-22T08:24:06.292Z,102934.63
2019-03-22T08:26:38.727Z,102926.06
2019-03-22T08:29:10.839Z,102931.36
2019-03-22T08:31:42.663Z,102928.42
2019-03-22T08:34:14.681Z,102921.59
2019-03-22T08:36:46.870Z,102919.13
2019-03-22T08:39:18.950Z,102911.12
2019-03-22T08:41:51.157Z,102914.76
2019-03-22T08:44:23.730Z,102907.67
2019-03-22T08:46:55.742Z,102911.83
2019-03-22T08:49:28.242Z,102941.55
2019-03-22T08:52:00.309Z,102946.16
2019-03-22T08:54:32.316Z,102956.44
2019-03-22T08:57:04.506Z,102936.72
2019-03-22T08:59:36.702Z,102940.97
2019-03-22T09:02:11.754Z,102946.09
2019-03-22T09:04:43.836Z,102950.20
2019-03-22T09:07:15.689Z,102956.38
2019-03-22T09:09:48.821Z,102965.00
2019-03-22T09:12:20.843Z,102974.16
2019-03-22T09:14:52.929Z,102975.17
2019-03-22T09:17:24.958Z,102982.59
2019-03-22T09:19:57.187Z,102973.81
2019-03-22T09:22:30.248Z,102969.64
2019-03-22T09:25:02.402Z,102969.34
2019-03-22T09:27:36.568Z,102959.77
2019-03-22T09:30:08.738Z,102985.08
2019-03-22T09:32:40.857Z,102984.30
2019-03-22T09:35:13.246Z,102978.07
2019-03-22T09:37:45.346Z,102980.84
2019-03-22T09:40:18.151Z,102982.96
2019-03-22T09:42:52.953Z,102977.91
2019-03-22T09:45:24.293Z,102982.86
2019-03-22T09:47:57.547Z,102978.30
2019-03-22T09:50:29.685Z,102975.95
2019-03-22T09:53:01.742Z,102964.41
2019-03-22T09:55:34.882Z,102966.27
2019-03-22T09:58:07.405Z,102965.26
2019-03-22T10:00:39.517Z,102967.85
2019-03-22T10:03:12.028Z,102954.27
2019-03-22T10:05:44.125Z,102953.95
2019-03-22T10:08:16.401Z,102936.95
2019-03-22T10:10:48.638Z,102936.95
2019-03-22T10:13:20.906Z,102957.77
2019-03-22T10:15:53.427Z,102947.42
2019-03-22T10:18:25.487Z,102937.98
2019-03-22T10:20:57.606Z,102953.38
2019-03-22T10:23:30.092Z,102961.07
2019-03-22T10:26:02.275Z,102969.02
2019-03-22T10:28:34.519Z,102970.80
2019-03-22T10:31:06.733Z,102973.31
2019-03-22T10:33:39.084Z,102983.89
2019-03-22T10:36:11.171Z,102990.39
2019-03-22T10:38:43.363Z,102986.20
2019-03-22T10:41:15.332Z,102985.34
2019-03-22T10:43:47.140Z,102985.34
2019-03-22T10:46:19.263Z,102993.86
2019-03-22T10:48:51.596Z,103001.92
2019-03-22T10:51:23.945Z,103001.92
2019-03-22T10:53:56.003Z,102990.32
2019-03-22T10:56:27.955Z,102996.64
2019-03-22T10:58:59.899Z,102993.42
2019-03-22T11:01:31.825Z,102995.16
2019-03-22T11:06:36.250Z,102996.72
2019-03-22T11:09:09.889Z,102992.92
2019-03-22T11:11:43.345Z,103010.27
2019-03-22T11:14:16.265Z,103002.81
2019-03-22T11:16:48.221Z,103002.41
2019-03-22T11:19:20.322Z,103004.12
2019-03-22T11:21:52.210Z,103004.22
2019-03-22T11:24:24.120Z,102998.23
2019-03-22T11:26:56.375Z,102998.21
2019-03-22T11:29:29.052Z,102984.04
2019-03-22T11:32:01.458Z,102975.42
2019-03-22T11:34:33.623Z,102975.42
2019-03-22T11:37:07.721Z,102984.62
2019-03-22T11:39:39.857Z,102990.16
2019-03-22T11:42:12.518Z,102984.19
2019-03-22T11:44:44.466Z,102985.17
2019-03-22T11:47:16.873Z,102979.94
2019-03-22T11:49:48.989Z,102979.87
2019-03-22T11:52:20.988Z,102985.00
2019-03-22T11:54:53.333Z,102978.32
2019-03-22T11:57:25.346Z,102971.11
2019-03-22T11:59:57.597Z,102971.14
2019-03-22T12:02:29.489Z,102983.66
2019-03-22T12:05:01.545Z,102985.23
2019-03-22T12:07:33.558Z,102986.11
2019-03-22T12:10:25.986Z,102984.36
2019-03-22T12:12:58.277Z,102985.53
2019-03-22T12:15:30.615Z,102988.09
2019-03-22T12:18:02.956Z,102989.59
2019-03-22T12:20:34.781Z,102991.09
2019-03-22T12:23:06.636Z,102987.84
2019-03-22T12:25:38.853Z,102979.09
2019-03-22T12:28:11.046Z,102964.66
2019-03-22T12:30:43.218Z,102959.23
2019-03-22T12:33:15.229Z,102942.90
2019-03-22T12:35:47.204Z,102940.86
2019-03-22T12:38:19.383Z,102924.45
2019-03-22T12:40:51.271Z,102939.19
2019-03-22T12:43:23.404Z,102930.73
2019-03-22T12:45:55.785Z,102933.42
2019-03-22T12:48:27.904Z,102921.81
2019-03-22T12:51:00.062Z,102915.72
2019-03-22T12:53:32.691Z,102910.44
2019-03-22T12:56:04.666Z,102907.10
2019-03-22T12:58:36.600Z,102903.09
2019-03-22T13:01:10.238Z,102902.43
2019-03-22T13:03:42.622Z,102909.98
2019-03-22T13:06:14.806Z,102911.72
2019-03-22T13:08:46.774Z,102907.05
2019-03-22T13:11:18.931Z,102904.42
2019-03-22T13:13:51.244Z,102917.61
2019-03-22T13:16:23.492Z,102918.58
2019-03-22T13:18:55.549Z,102919.73
2019-03-22T13:21:29.879Z,102919.98
2019-03-22T13:24:02.047Z,102923.56
2019-03-22T13:26:34.086Z,102921.61
2019-03-22T13:29:06.032Z,102923.40
2019-03-22T13:31:38.243Z,102918.91
2019-03-22T13:34:10.390Z,102921.77
2019-03-22T13:36:42.313Z,102926.52
2019-03-22T13:39:14.898Z,102918.47
2019-03-22T13:41:47.095Z,102921.64
2019-03-22T13:44:19.255Z,102915.56
2019-03-22T13:46:51.284Z,102907.42
2019-03-22T13:49:23.489Z,102913.20
2019-03-22T13:51:55.976Z,102916.75
2019-03-22T13:54:28.078Z,102905.53
2019-03-22T13:57:00.286Z,102902.03
2019-03-22T13:59:32.249Z,102900.40
2019-03-22T14:02:04.366Z,102896.45
2019-03-22T14:04:36.365Z,102895.52
2019-03-22T14:07:08.530Z,102891.22
2019-03-22T14:09:40.717Z,102898.97
2019-03-22T14:12:12.707Z,102895.13
2019-03-22T14:14:44.834Z,102903.27
2019-03-22T14:17:16.881Z,102901.67
2019-03-22T14:19:49.167Z,102902.05
2019-03-22T14:22:21.353Z,102897.44
2019-03-22T14:24:53.745Z,102902.20
2019-03-22T14:27:25.977Z,102902.20
2019-03-22T14:29:57.929Z,102893.67
2019-03-22T14:32:30.254Z,102898.59
2019-03-22T14:35:02.217Z,102892.77
2019-03-22T14:37:34.462Z,102886.66
2019-03-22T14:40:07.193Z,102882.61
2019-03-22T14:42:40.112Z,102887.88
2019-03-22T14:45:12.619Z,102880.48
2019-03-22T14:47:44.843Z,102881.84
2019-03-22T14:50:17.226Z,102875.09
2019-03-22T14:52:49.425Z,102878.78
2019-03-22T14:55:21.686Z,102882.19
2019-03-22T14:57:53.720Z,102891.43
2019-03-22T15:00:26.250Z,102888.44
2019-03-22T15:02:58.593Z,102893.33
2019-03-22T15:05:31.087Z,102875.17
2019-03-22T15:08:03.758Z,102886.50
2019-03-22T15:10:35.738Z,102873.28
2019-03-22T15:13:08.282Z,102885.02
2019-03-22T15:15:42.299Z,102879.62
2019-03-22T15:18:16.625Z,102879.98
2019-03-22T15:20:56.330Z,102869.16
2019-03-22T15:23:32.911Z,102879.16
2019-03-22T15:26:15.689Z,102863.78
2019-03-22T15:28:49.577Z,102870.26
2019-03-22T15:31:25.993Z,102864.67
2019-03-22T15:34:11.860Z,102861.63
2019-03-22T15:36:57.408Z,102865.67
2019-03-22T15:42:06.769Z,102847.80
2019-03-22T15:44:39.200Z,102849.80
2019-03-22T15:47:11.804Z,102843.25
2019-03-22T15:49:43.942Z,102847.96
2019-03-22T15:52:16.376Z,102849.80
2019-03-22T15:54:48.336Z,102845.91
2019-03-22T15:57:20.467Z,102847.63
2019-03-22T15:59:53.717Z,102848.38
2019-03-22T16:02:26.047Z,102844.48
2019-03-22T16:04:56.691Z,102844.39
2019-03-22T16:07:28.674Z,102835.48
2019-03-22T16:10:00.813Z,102839.84
2019-03-22T16:12:32.736Z,102837.61
2019-03-22T16:15:05.720Z,102831.66
2019-03-22T16:17:37.946Z,102838.14
2019-03-22T16:20:11.350Z,102837.20
2019-03-22T16:22:44.201Z,102835.45
2019-03-22T16:25:16.645Z,102830.11
2019-03-22T16:27:47.784Z,102833.95
2019-03-22T16:30:18.283Z,102834.63
2019-03-22T16:32:49.080Z,102834.25
2019-03-22T16:35:21.982Z,102833.11
2019-03-22T16:37:52.393Z,102847.48
2019-03-22T16:40:24.481Z,102849.05
2019-03-22T16:42:55.327Z,102843.36
2019-03-22T16:45:36.120Z,102841.20
2019-03-22T16:48:06.488Z,102849.27
2019-03-22T16:50:37.076Z,102850.73
2019-03-22T16:53:07.651Z,102849.60
2019-03-22T16:55:38.364Z,102854.26
2019-03-22T16:58:08.694Z,102855.17
2019-03-22T17:00:39.381Z,102850.07
2019-03-22T17:03:09.926Z,102852.89
2019-03-22T17:05:40.668Z,102847.83
2019-03-22T17:08:11.023Z,102846.74
2019-03-22T17:10:41.598Z,102845.59
2019-03-22T17:13:12.631Z,102849.92
2019-03-22T17:15:43.149Z,102848.01
2019-03-22T17:18:14.171Z,102846.95
2019-03-22T17:20:44.676Z,102840.98
2019-03-22T17:23:15.482Z,102839.17
2019-03-22T17:25:45.957Z,102833.08
2019-03-22T17:28:16.810Z,102831.40
2019-03-22T17:30:47.366Z,102828.48
2019-03-22T17:33:18.128Z,102827.56
2019-03-22T17:35:49.220Z,102827.53
2019-03-22T17:40:18.150Z,102831.52
2019-03-22T17:42:50.382Z,102835.40
2019-03-22T17:45:22.808Z,102830.48
2019-03-22T17:47:54.912Z,102840.06
2019-03-22T17:50:27.025Z,102842.91
2019-03-22T17:52:59.498Z,102835.48
2019-03-22T17:55:31.478Z,102835.48
2019-03-22T17:58:03.799Z,102830.30
2019-03-22T18:00:36.138Z,102825.94
2019-03-22T18:03:08.356Z,102834.09
2019-03-22T18:05:40.680Z,102836.14
2019-03-22T18:08:12.844Z,102838.69
2019-03-22T18:10:44.869Z,102834.97
2019-03-22T18:13:17.090Z,102837.72
2019-03-22T18:15:49.522Z,102837.27
2019-03-22T18:18:22.086Z,102835.78
2019-03-22T18:20:54.498Z,102833.17
2019-03-22T18:23:35.504Z,102830.08
2019-03-22T18:26:00.741Z,102829.59
2019-03-22T18:28:33.132Z,102826.48
2019-03-22T18:31:05.328Z,102830.23
2019-03-22T18:33:37.448Z,102820.59
2019-03-22T18:36:09.631Z,102827.02
2019-03-22T18:38:41.895Z,102811.48
2019-03-22T18:41:14.400Z,102823.23
2019-03-22T18:43:46.805Z,102823.17
2019-03-22T18:46:19.011Z,102821.09
2019-03-22T18:48:51.401Z,102826.02
2019-03-22T18:51:23.712Z,102823.23
2019-03-22T18:53:56.070Z,102830.34
2019-03-22T18:56:28.306Z,102825.80
2019-03-22T18:59:00.754Z,102822.66
2019-03-22T19:01:32.612Z,102825.63
2019-03-22T19:04:04.818Z,102825.39
2019-03-22T19:06:37.439Z,102822.94
2019-03-22T19:09:09.983Z,102833.70
2019-03-22T19:11:42.347Z,102835.30
2019-03-22T19:14:14.721Z,102831.04
2019-03-22T19:16:46.581Z,102834.53
2019-03-22T19:19:20.079Z,102836.50
2019-03-22T19:22:02.405Z,102826.95
2019-03-22T19:24:34.478Z,102826.25
2019-03-22T19:27:06.605Z,102830.53
2019-03-22T19:29:38.800Z,102831.51
2019-03-22T19:32:13.805Z,102830.23
2019-03-22T19:34:53.892Z,102825.83
2019-03-22T19:37:19.567Z,102823.09
2019-03-22T19:39:51.697Z,102815.31
2019-03-22T19:42:25.670Z,102824.24
2019-03-22T19:44:57.913Z,102823.06
2019-03-22T19:47:30.009Z,102827.38
2019-03-22T19:50:02.336Z,102825.19
2019-03-22T19:52:34.879Z,102825.43
2019-03-22T19:55:07.797Z,102818.58
2019-03-22T19:57:40.145Z,102824.73
2019-03-22T20:00:12.586Z,102830.80
2019-03-22T20:02:45.073Z,102822.92
2019-03-22T20:05:37.692Z,102826.84
2019-03-22T20:08:13.666Z,102816.97
2019-03-22T20:10:43.447Z,102820.19
2019-03-22T20:13:15.570Z,102813.98
2019-03-22T20:15:48.273Z,102824.70
2019-03-22T20:18:20.642Z,102822.08
2019-03-22T20:20:53.051Z,102816.53
2019-03-22T20:23:25.237Z,102821.62
2019-03-22T20:25:57.216Z,102822.16
2019-03-22T20:28:29.500Z,102814.96
2019-03-22T20:31:01.842Z,102814.88
2019-03-22T20:33:33.864Z,102817.56
2019-03-22T20:36:07.515Z,102818.95
2019-03-22T20:38:40.154Z,102814.69
2019-03-22T20:41:12.507Z,102817.41
2019-03-22T20:43:44.694Z,102815.05
2019-03-22T20:46:16.929Z,102807.78
2019-03-22T20:48:49.124Z,102806.31
2019-03-22T20:51:21.182Z,102805.36
2019-03-22T20:53:53.487Z,102809.88
2019-03-22T20:56:25.388Z,102807.05
2019-03-22T20:58:57.428Z,102805.98
2019-03-22T21:01:29.758Z,102812.39
2019-03-22T21:04:01.909Z,102808.65
2019-03-22T21:06:34.128Z,102810.00
2019-03-22T21:09:07.408Z,102805.73
2019-03-22T21:11:39.797Z,102805.73
2019-03-22T21:14:11.972Z,102804.00
2019-03-22T21:16:43.965Z,102810.25
2019-03-22T21:19:16.340Z,102812.33
2019-03-22T21:21:48.375Z,102810.56
2019-03-22T21:24:20.477Z,102813.69
2019-03-22T21:26:52.645Z,102806.84
2019-03-22T21:29:25.178Z,102813.20
2019-03-22T21:31:57.173Z,102813.10
2019-03-22T21:34:30.487Z,102818.66
2019-03-22T21:37:02.639Z,102821.49
2019-03-22T21:39:34.907Z,102820.79
2019-03-22T21:42:07.365Z,102819.40
2019-03-22T21:44:39.942Z,102816.68
2019-03-22T21:47:11.888Z,102812.87
2019-03-22T21:49:44.010Z,102813.21
2019-03-22T21:52:16.052Z,102806.86
2019-03-22T21:54:48.298Z,102809.73
2019-03-22T21:57:20.461Z,102810.37
2019-03-22T21:59:53.689Z,102804.98
2019-03-22T22:02:25.853Z,102797.87
2019-03-22T22:04:58.010Z,102798.02
2019-03-22T22:07:30.126Z,102788.51
2019-03-22T22:10:02.041Z,102791.23
2019-03-22T22:12:34.996Z,102779.70
2019-03-22T22:15:12.088Z,102777.31
2019-03-22T22:17:45.763Z,102779.05
2019-03-22T22:20:28.445Z,102774.48
2019-03-22T22:22:52.155Z,102776.78
2019-03-22T22:25:24.395Z,102777.02
2019-03-22T22:27:56.628Z,102772.27
2019-03-22T22:30:28.877Z,102768.50
2019-03-22T22:33:01.301Z,102764.95
2019-03-22T22:35:33.412Z,102765.16
2019-03-22T22:38:05.804Z,102767.41
2019-03-22T22:40:38.039Z,102762.55
2019-03-22T22:43:10.453Z,102772.82
2019-03-22T22:45:42.467Z,102776.55
2019-03-22T22:48:14.471Z,102776.69
2019-03-22T22:50:46.843Z,102772.70
2019-03-22T22:53:20.634Z,102770.84
2019-03-22T22:55:52.880Z,102764.26
2019-03-22T22:58:24.963Z,102764.86
2019-03-22T23:00:57.339Z,102763.34
2019-03-22T23:03:31.223Z,102761.79
2019-03-22T23:06:09.396Z,102760.39
2019-03-22T23:08:37.447Z,102757.39
2019-03-22T23:11:09.975Z,102743.00
2019-03-22T23:13:42.013Z,102746.32
2019-03-22T23:16:14.064Z,102749.41
2019-03-22T23:18:46.154Z,102748.34
2019-03-22T23:21:18.366Z,102749.05
2019-03-22T23:23:50.535Z,102737.72
2019-03-22T23:26:22.601Z,102731.22
2019-03-22T23:28:53.387Z,102730.55
2019-03-22T23:31:23.965Z,102731.81
2019-03-22T23:33:54.591Z,102728.47
2019-03-22T23:36:25.453Z,102726.55
2019-03-22T23:38:56.329Z,102729.67
2019-03-22T23:41:28.518Z,102728.30
2019-03-22T23:44:00.778Z,102724.99
2019-03-22T23:46:33.296Z,102725.38
2019-03-22T23:49:05.619Z,102725.36
2019-03-22T23:51:38.948Z,102722.92
2019-03-22T23:54:11.414Z,102717.07
2019-03-22T23:56:43.570Z,102716.52
2019-03-22T23:59:15.683Z,102704.09
